createdAt,value
2018-07-12T00:00:46.256Z,0.00
2018-07-12T00:01:46.183Z,0.00
2018-07-12T00:02:46.110Z,0.00
2018-07-12T00:03:46.038Z,0.00
2018-07-12T00:04:45.967Z,0.00
2018-07-12T00:05:45.893Z,0.00
2018-07-12T00:06:45.820Z,0.00
2018-07-12T00:07:45.748Z,0.00
2018-07-12T00:08:45.676Z,0.00
2018-07-12T00:09:45.606Z,0.00
2018-07-12T00:10:45.531Z,0.00
2018-07-12T00:11:45.459Z,0.00
2018-07-12T00:12:45.385Z,0.00
2018-07-12T00:13:45.315Z,0.00
2018-07-12T00:14:45.241Z,0.00
2018-07-12T00:15:45.169Z,0.00
2018-07-12T00:16:45.096Z,0.00
2018-07-12T00:17:45.026Z,0.00
2018-07-12T00:18:44.952Z,0.00
2018-07-12T00:19:44.879Z,0.00
2018-07-12T00:20:44.807Z,0.00
2018-07-12T00:21:44.735Z,0.00
2018-07-12T00:22:44.664Z,0.00
2018-07-12T00:23:44.590Z,0.00
2018-07-12T00:24:44.518Z,0.00
2018-07-12T00:25:44.447Z,0.00
2018-07-12T00:26:44.372Z,0.00
2018-07-12T00:27:44.300Z,0.00
2018-07-12T00:28:44.228Z,0.00
2018-07-12T00:29:44.155Z,0.00
2018-07-12T00:30:44.083Z,0.00
2018-07-12T00:31:44.011Z,0.00
2018-07-12T00:32:43.940Z,0.00
2018-07-12T00:33:43.910Z,0.00
2018-07-12T00:34:43.794Z,0.00
2018-07-12T00:35:43.722Z,0.00
2018-07-12T00:36:43.651Z,0.00
2018-07-12T00:37:43.579Z,0.00
2018-07-12T00:38:43.505Z,0.00
2018-07-12T00:39:43.434Z,0.00
2018-07-12T00:40:43.361Z,0.00
2018-07-12T00:41:43.289Z,0.00
2018-07-12T00:42:43.218Z,0.00
2018-07-12T00:43:43.145Z,0.00
2018-07-12T00:44:43.073Z,0.00
2018-07-12T00:45:42.999Z,0.00
2018-07-12T00:46:42.927Z,0.00
2018-07-12T00:47:42.853Z,0.00
2018-07-12T00:48:42.783Z,0.00
2018-07-12T00:49:42.711Z,0.00
2018-07-12T00:50:42.638Z,0.00
2018-07-12T00:51:42.567Z,0.00
2018-07-12T00:52:42.493Z,0.00
2018-07-12T00:53:42.421Z,0.00
2018-07-12T00:54:42.349Z,0.00
2018-07-12T00:55:42.276Z,0.00
2018-07-12T00:56:42.204Z,0.00
2018-07-12T00:57:42.133Z,0.00
2018-07-12T00:58:42.063Z,0.00
2018-07-12T00:59:41.987Z,0.00
2018-07-12T01:00:41.914Z,0.00
2018-07-12T01:01:41.843Z,0.00
2018-07-12T01:02:41.771Z,0.00
2018-07-12T01:03:41.698Z,0.00
2018-07-12T01:04:41.629Z,0.00
2018-07-12T01:05:41.554Z,0.00
2018-07-12T01:06:41.481Z,0.00
2018-07-12T01:07:41.409Z,0.00
2018-07-12T01:08:41.336Z,0.00
2018-07-12T01:09:41.264Z,0.00
2018-07-12T01:10:41.191Z,0.00
2018-07-12T01:11:41.121Z,0.00
2018-07-12T01:12:41.047Z,0.00
2018-07-12T01:13:40.975Z,0.00
2018-07-12T01:14:40.901Z,0.00
2018-07-12T01:15:40.828Z,0.00
2018-07-12T01:16:40.756Z,0.00
2018-07-12T01:17:40.683Z,0.00
2018-07-12T01:18:40.611Z,0.00
2018-07-12T01:19:40.539Z,0.00
2018-07-12T01:20:40.466Z,0.00
2018-07-12T01:21:40.394Z,0.00
2018-07-12T01:22:40.320Z,0.00
2018-07-12T01:23:40.248Z,0.00
2018-07-12T01:24:40.179Z,0.00
2018-07-12T01:25:40.103Z,0.00
2018-07-12T01:26:40.030Z,0.00
2018-07-12T01:27:39.957Z,0.00
2018-07-12T01:28:39.885Z,0.00
2018-07-12T01:29:39.815Z,0.00
2018-07-12T01:30:39.738Z,0.00
2018-07-12T01:31:39.667Z,0.00
2018-07-12T01:32:39.595Z,0.00
2018-07-12T01:33:39.523Z,0.00
2018-07-12T01:34:39.448Z,0.00
2018-07-12T01:35:39.376Z,0.00
2018-07-12T01:36:39.302Z,0.00
2018-07-12T01:37:39.231Z,0.00
2018-07-12T01:38:39.157Z,0.00
2018-07-12T01:39:39.085Z,0.00
2018-07-12T01:40:39.013Z,0.00
2018-07-12T01:41:38.941Z,0.00
2018-07-12T01:42:38.866Z,0.00
2018-07-12T01:43:38.794Z,0.00
2018-07-12T01:44:38.722Z,0.00
2018-07-12T01:45:38.650Z,0.00
2018-07-12T01:46:38.577Z,0.00
2018-07-12T01:47:38.505Z,0.00
2018-07-12T01:48:38.431Z,0.00
2018-07-12T01:49:38.359Z,0.00
2018-07-12T01:50:38.286Z,0.00
2018-07-12T01:51:38.213Z,0.00
2018-07-12T01:52:38.142Z,0.00
2018-07-12T01:53:38.070Z,0.00
2018-07-12T01:54:37.995Z,0.00
2018-07-12T01:55:37.924Z,0.00
2018-07-12T01:56:37.850Z,0.00
2018-07-12T01:57:37.779Z,0.00
2018-07-12T01:58:37.705Z,0.00
2018-07-12T01:59:37.637Z,0.00
2018-07-12T02:00:37.624Z,0.00
2018-07-12T02:01:37.489Z,0.00
2018-07-12T02:02:37.416Z,0.00
2018-07-12T02:03:37.345Z,0.00
2018-07-12T02:04:37.272Z,0.00
2018-07-12T02:05:37.201Z,0.00
2018-07-12T02:06:37.126Z,0.00
2018-07-12T02:07:37.078Z,0.00
2018-07-12T02:08:36.981Z,0.00
2018-07-12T02:09:36.909Z,0.00
2018-07-12T02:10:36.835Z,0.00
2018-07-12T02:11:36.765Z,0.00
2018-07-12T02:12:36.693Z,0.00
2018-07-12T02:13:36.619Z,0.00
2018-07-12T02:14:36.547Z,0.00
2018-07-12T02:15:36.474Z,0.00
2018-07-12T02:16:36.402Z,0.00
2018-07-12T02:17:36.331Z,0.00
2018-07-12T02:18:36.257Z,0.00
2018-07-12T02:19:36.186Z,0.00
2018-07-12T02:20:36.113Z,0.00
2018-07-12T02:21:36.041Z,0.00
2018-07-12T02:22:35.969Z,0.00
2018-07-12T02:23:35.896Z,0.00
2018-07-12T02:24:35.824Z,0.00
2018-07-12T02:25:35.754Z,0.00
2018-07-12T02:26:35.680Z,0.00
2018-07-12T02:27:35.626Z,0.00
2018-07-12T02:28:35.534Z,0.00
2018-07-12T02:29:35.460Z,0.00
2018-07-12T02:30:35.389Z,0.00
2018-07-12T02:31:35.317Z,0.00
2018-07-12T02:32:35.245Z,0.00
2018-07-12T02:33:35.173Z,0.00
2018-07-12T02:34:35.099Z,0.00
2018-07-12T02:35:35.031Z,0.00
2018-07-12T02:36:34.956Z,0.00
2018-07-12T02:37:34.883Z,0.00
2018-07-12T02:38:34.810Z,0.00
2018-07-12T02:39:34.741Z,0.00
2018-07-12T02:40:34.666Z,0.00
2018-07-12T02:41:34.594Z,0.00
2018-07-12T02:42:34.522Z,0.00
2018-07-12T02:43:34.449Z,0.00
2018-07-12T02:44:34.381Z,0.00
2018-07-12T02:45:34.306Z,0.00
2018-07-12T02:46:34.232Z,0.00
2018-07-12T02:47:34.161Z,0.00
2018-07-12T02:48:34.088Z,0.00
2018-07-12T02:49:34.017Z,0.00
2018-07-12T02:50:33.944Z,0.00
2018-07-12T02:51:33.876Z,0.00
2018-07-12T02:52:33.801Z,0.00
2018-07-12T02:53:33.727Z,0.00
2018-07-12T02:54:33.656Z,0.00
2018-07-12T02:55:33.583Z,0.00
2018-07-12T02:56:33.515Z,0.00
2018-07-12T02:57:33.439Z,0.00
2018-07-12T02:58:33.366Z,0.00
2018-07-12T02:59:33.296Z,4.00
2018-07-12T03:00:33.223Z,4.00
2018-07-12T03:01:33.150Z,0.00
2018-07-12T03:02:33.082Z,0.00
2018-07-12T03:03:33.006Z,4.00
2018-07-12T03:04:32.934Z,4.00
2018-07-12T03:05:32.862Z,4.00
2018-07-12T03:06:32.789Z,4.00
2018-07-12T03:07:32.717Z,4.00
2018-07-12T03:08:32.646Z,4.00
2018-07-12T03:09:32.574Z,4.00
2018-07-12T03:10:32.500Z,4.00
2018-07-12T03:11:32.428Z,4.00
2018-07-12T03:12:32.357Z,8.00
2018-07-12T03:13:32.284Z,8.00
2018-07-12T03:14:32.213Z,4.00
2018-07-12T03:15:32.139Z,8.00
2018-07-12T03:16:32.067Z,12.00
2018-07-12T03:17:31.996Z,12.00
2018-07-12T03:18:31.923Z,12.00
2018-07-12T03:19:31.851Z,16.00
2018-07-12T03:20:31.779Z,12.00
2018-07-12T03:21:31.707Z,12.00
2018-07-12T03:22:31.635Z,16.00
2018-07-12T03:23:31.563Z,20.00
2018-07-12T03:24:31.490Z,20.00
2018-07-12T03:25:31.419Z,24.00
2018-07-12T03:26:31.347Z,24.00
2018-07-12T03:27:31.274Z,28.00
2018-07-12T03:28:31.202Z,28.00
2018-07-12T03:29:31.130Z,28.00
2018-07-12T03:30:31.060Z,28.00
2018-07-12T03:31:30.986Z,32.00
2018-07-12T03:32:30.914Z,32.00
2018-07-12T03:33:30.842Z,32.00
2018-07-12T03:34:30.767Z,40.00
2018-07-12T03:35:30.700Z,56.00
2018-07-12T03:36:30.625Z,68.00
2018-07-12T03:37:30.553Z,72.00
2018-07-12T03:38:30.481Z,72.00
2018-07-12T03:39:30.409Z,72.00
2018-07-12T03:40:30.396Z,64.00
2018-07-12T03:41:30.266Z,60.00
2018-07-12T03:42:30.192Z,56.00
2018-07-12T03:43:30.120Z,52.00
2018-07-12T03:44:30.048Z,68.00
2018-07-12T03:45:29.975Z,84.00
2018-07-12T03:46:29.903Z,96.00
2018-07-12T03:47:29.832Z,112.00
2018-07-12T03:48:29.760Z,132.00
2018-07-12T03:49:29.687Z,156.00
2018-07-12T03:50:29.613Z,164.00
2018-07-12T03:51:29.544Z,168.00
2018-07-12T03:52:29.470Z,168.00
2018-07-12T03:53:29.397Z,160.00
2018-07-12T03:54:29.325Z,144.00
2018-07-12T03:55:29.254Z,140.00
2018-07-12T03:56:29.181Z,156.00
2018-07-12T03:57:29.110Z,156.00
2018-07-12T03:58:29.037Z,144.00
2018-07-12T03:59:28.965Z,136.00
2018-07-12T04:00:28.893Z,144.00
2018-07-12T04:01:28.821Z,156.00
2018-07-12T04:02:28.748Z,168.00
2018-07-12T04:03:28.690Z,152.00
2018-07-12T04:04:28.605Z,132.00
2018-07-12T04:05:28.533Z,116.00
2018-07-12T04:06:28.460Z,128.00
2018-07-12T04:07:28.389Z,192.00
2018-07-12T04:08:28.316Z,216.00
2018-07-12T04:09:28.244Z,216.00
2018-07-12T04:10:28.172Z,244.00
2018-07-12T04:11:28.100Z,288.00
2018-07-12T04:12:28.031Z,240.00
2018-07-12T04:13:27.956Z,184.00
2018-07-12T04:14:27.884Z,168.00
2018-07-12T04:15:27.812Z,204.00
2018-07-12T04:16:27.740Z,236.00
2018-07-12T04:17:27.668Z,288.00
2018-07-12T04:18:27.595Z,368.00
2018-07-12T04:19:27.527Z,404.00
2018-07-12T04:20:27.452Z,448.00
2018-07-12T04:21:27.380Z,536.00
2018-07-12T04:22:27.311Z,640.00
2018-07-12T04:23:27.235Z,724.00
2018-07-12T04:24:27.165Z,816.00
2018-07-12T04:25:27.091Z,924.00
2018-07-12T04:26:27.019Z,996.00
2018-07-12T04:27:26.946Z,996.00
2018-07-12T04:28:26.873Z,1008.00
2018-07-12T04:29:26.806Z,1024.00
2018-07-12T04:30:26.731Z,1044.00
2018-07-12T04:31:26.660Z,1076.00
2018-07-12T04:32:26.588Z,1140.00
2018-07-12T04:33:26.514Z,1176.00
2018-07-12T04:34:26.441Z,1184.00
2018-07-12T04:35:26.370Z,1236.00
2018-07-12T04:36:26.298Z,1324.00
2018-07-12T04:37:26.226Z,1396.00
2018-07-12T04:38:26.156Z,1468.00
2018-07-12T04:39:26.082Z,1512.00
2018-07-12T04:40:26.011Z,1528.00
2018-07-12T04:41:25.940Z,1412.00
2018-07-12T04:42:25.865Z,1300.00
2018-07-12T04:43:25.793Z,1256.00
2018-07-12T04:44:25.721Z,1316.00
2018-07-12T04:45:25.651Z,1216.00
2018-07-12T04:46:25.577Z,1308.00
2018-07-12T04:47:25.505Z,1508.00
2018-07-12T04:48:25.435Z,1628.00
2018-07-12T04:49:25.361Z,1440.00
2018-07-12T04:50:25.289Z,1828.00
2018-07-12T04:51:25.217Z,1820.00
2018-07-12T04:52:25.146Z,1556.00
2018-07-12T04:53:25.074Z,1372.00
2018-07-12T04:54:25.002Z,1336.00
2018-07-12T04:55:24.929Z,1336.00
2018-07-12T04:56:24.860Z,1364.00
2018-07-12T04:57:24.787Z,1520.00
2018-07-12T04:58:24.759Z,1568.00
2018-07-12T04:59:24.641Z,1416.00
2018-07-12T05:00:24.570Z,1472.00
2018-07-12T05:01:24.498Z,1684.00
2018-07-12T05:02:24.426Z,1632.00
2018-07-12T05:03:24.354Z,1540.00
2018-07-12T05:04:24.281Z,1492.00
2018-07-12T05:05:24.210Z,1564.00
2018-07-12T05:06:24.137Z,1544.00
2018-07-12T05:07:24.067Z,1544.00
2018-07-12T05:08:23.994Z,1680.00
2018-07-12T05:09:23.923Z,1748.00
2018-07-12T05:10:23.851Z,1528.00
2018-07-12T05:11:23.779Z,1552.00
2018-07-12T05:12:23.858Z,1948.00
2018-07-12T05:13:23.636Z,1676.00
2018-07-12T05:14:23.563Z,1448.00
2018-07-12T05:15:23.492Z,1400.00
2018-07-12T05:16:23.422Z,1432.00
2018-07-12T05:17:23.350Z,1596.00
2018-07-12T05:18:23.277Z,1636.00
2018-07-12T05:19:23.206Z,1608.00
2018-07-12T05:20:23.133Z,1712.00
2018-07-12T05:21:23.062Z,1948.00
2018-07-12T05:22:22.989Z,2024.00
2018-07-12T05:23:22.921Z,1808.00
2018-07-12T05:24:22.848Z,1860.00
2018-07-12T05:25:22.774Z,1892.00
2018-07-12T05:26:22.703Z,1772.00
2018-07-12T05:27:22.631Z,1656.00
2018-07-12T05:28:22.558Z,1660.00
2018-07-12T05:29:22.489Z,2052.00
2018-07-12T05:30:22.415Z,2200.00
2018-07-12T05:31:22.346Z,2204.00
2018-07-12T05:32:22.272Z,2232.00
2018-07-12T05:33:22.202Z,2772.00
2018-07-12T05:34:22.129Z,2944.00
2018-07-12T05:35:22.057Z,3048.00
2018-07-12T05:36:21.985Z,2412.00
2018-07-12T05:37:21.914Z,2024.00
2018-07-12T05:38:21.841Z,1876.00
2018-07-12T05:39:21.808Z,1816.00
2018-07-12T05:40:21.699Z,1920.00
2018-07-12T05:41:21.628Z,1992.00
2018-07-12T05:42:21.556Z,1976.00
2018-07-12T05:43:21.484Z,1900.00
2018-07-12T05:44:21.412Z,1788.00
2018-07-12T05:45:21.341Z,1688.00
2018-07-12T05:46:21.269Z,1664.00
2018-07-12T05:47:21.199Z,1684.00
2018-07-12T05:48:21.130Z,1632.00
2018-07-12T05:49:21.055Z,1744.00
2018-07-12T05:50:20.982Z,1776.00
2018-07-12T05:51:20.911Z,1760.00
2018-07-12T05:52:20.840Z,1760.00
2018-07-12T05:53:20.768Z,1648.00
2018-07-12T05:54:20.697Z,1808.00
2018-07-12T05:55:20.625Z,1816.00
2018-07-12T05:56:20.556Z,1832.00
2018-07-12T05:57:20.485Z,1868.00
2018-07-12T05:58:20.411Z,1900.00
2018-07-12T05:59:20.340Z,1904.00
2018-07-12T06:00:20.267Z,1960.00
2018-07-12T06:01:20.197Z,2056.00
2018-07-12T06:02:20.127Z,1948.00
2018-07-12T06:03:20.053Z,1972.00
2018-07-12T06:04:19.982Z,2248.00
2018-07-12T06:05:19.913Z,2096.00
2018-07-12T06:06:19.842Z,2152.00
2018-07-12T06:07:19.769Z,2380.00
2018-07-12T06:08:20.047Z,2356.00
2018-07-12T06:09:19.627Z,2244.00
2018-07-12T06:10:19.553Z,2416.00
2018-07-12T06:11:19.482Z,2364.00
2018-07-12T06:12:19.412Z,2664.00
2018-07-12T06:13:19.419Z,3216.00
2018-07-12T06:14:19.268Z,3608.00
2018-07-12T06:15:19.196Z,3256.00
2018-07-12T06:16:19.127Z,2748.00
2018-07-12T06:17:19.055Z,2436.00
2018-07-12T06:18:18.984Z,2848.00
2018-07-12T06:19:18.913Z,4424.00
2018-07-12T06:20:18.842Z,4104.00
2018-07-12T06:21:18.771Z,4216.00
2018-07-12T06:22:18.700Z,5068.00
2018-07-12T06:23:18.628Z,5000.00
2018-07-12T06:24:18.556Z,4240.00
2018-07-12T06:25:18.489Z,4428.00
2018-07-12T06:26:18.414Z,4308.00
2018-07-12T06:27:18.344Z,4540.00
2018-07-12T06:28:18.273Z,4588.00
2018-07-12T06:29:18.202Z,4260.00
2018-07-12T06:30:18.134Z,4508.00
2018-07-12T06:31:18.060Z,4500.00
2018-07-12T06:32:17.989Z,4064.00
2018-07-12T06:33:17.918Z,3672.00
2018-07-12T06:34:17.847Z,3672.00
2018-07-12T06:35:17.775Z,3644.00
2018-07-12T06:36:17.705Z,3468.00
2018-07-12T06:37:17.731Z,3276.00
2018-07-12T06:38:17.563Z,3588.00
2018-07-12T06:39:17.492Z,3768.00
2018-07-12T06:40:17.421Z,4060.00
2018-07-12T06:41:17.352Z,4136.00
2018-07-12T06:42:17.278Z,4568.00
2018-07-12T06:43:17.208Z,4844.00
2018-07-12T06:44:17.137Z,5032.00
2018-07-12T06:45:17.068Z,5300.00
2018-07-12T06:46:16.994Z,5376.00
2018-07-12T06:47:16.925Z,5668.00
2018-07-12T06:48:16.854Z,6096.00
2018-07-12T06:49:16.785Z,6140.00
2018-07-12T06:50:16.717Z,5956.00
2018-07-12T06:51:16.642Z,5672.00
2018-07-12T06:52:16.576Z,5748.00
2018-07-12T06:53:16.502Z,5948.00
2018-07-12T06:54:16.435Z,6460.00
2018-07-12T06:55:16.359Z,6692.00
2018-07-12T06:56:16.289Z,6492.00
2018-07-12T06:57:16.219Z,6208.00
2018-07-12T06:58:16.147Z,5848.00
2018-07-12T06:59:16.077Z,5640.00
2018-07-12T07:00:16.006Z,5364.00
2018-07-12T07:01:15.937Z,5152.00
2018-07-12T07:02:15.865Z,5188.00
2018-07-12T07:03:15.796Z,5196.00
2018-07-12T07:04:15.725Z,5164.00
2018-07-12T07:05:15.655Z,5888.00
2018-07-12T07:06:15.603Z,6332.00
2018-07-12T07:07:15.515Z,6320.00
2018-07-12T07:08:15.443Z,6456.00
2018-07-12T07:09:15.377Z,6024.00
2018-07-12T07:10:15.306Z,6140.00
2018-07-12T07:11:15.233Z,6172.00
2018-07-12T07:12:15.161Z,6472.00
2018-07-12T07:13:15.092Z,6568.00
2018-07-12T07:14:15.020Z,6080.00
2018-07-12T07:15:14.952Z,5508.00
2018-07-12T07:16:14.880Z,5308.00
2018-07-12T07:17:14.810Z,5696.00
2018-07-12T07:18:14.739Z,5940.00
2018-07-12T07:19:14.673Z,5624.00
2018-07-12T07:20:14.660Z,5040.00
2018-07-12T07:21:14.528Z,4868.00
2018-07-12T07:22:14.457Z,5204.00
2018-07-12T07:23:14.387Z,5052.00
2018-07-12T07:24:14.317Z,4744.00
2018-07-12T07:25:14.247Z,4820.00
2018-07-12T07:26:14.237Z,4896.00
2018-07-12T07:27:14.110Z,5132.00
2018-07-12T07:28:14.035Z,5328.00
2018-07-12T07:29:13.970Z,5856.00
2018-07-12T07:30:13.895Z,5840.00
2018-07-12T07:31:13.825Z,5496.00
2018-07-12T07:32:13.756Z,5224.00
2018-07-12T07:33:13.686Z,4472.00
2018-07-12T07:34:13.614Z,5064.00
2018-07-12T07:35:13.543Z,6024.00
2018-07-12T07:36:13.474Z,6548.00
2018-07-12T07:37:13.404Z,6464.00
2018-07-12T07:38:13.332Z,5964.00
2018-07-12T07:39:13.264Z,5028.00
2018-07-12T07:40:13.193Z,4848.00
2018-07-12T07:41:13.124Z,4732.00
2018-07-12T07:42:13.052Z,5024.00
2018-07-12T07:43:13.172Z,5636.00
2018-07-12T07:44:12.912Z,6224.00
2018-07-12T07:45:12.844Z,6652.00
2018-07-12T07:46:12.771Z,6644.00
2018-07-12T07:47:12.700Z,5856.00
2018-07-12T07:48:12.632Z,5260.00
2018-07-12T07:49:12.568Z,4816.00
2018-07-12T07:50:12.493Z,4660.00
2018-07-12T07:51:12.423Z,5260.00
2018-07-12T07:52:12.352Z,5856.00
2018-07-12T07:53:12.282Z,6148.00
2018-07-12T07:54:12.210Z,6704.00
2018-07-12T07:55:12.145Z,6924.00
2018-07-12T07:56:12.072Z,6720.00
2018-07-12T07:57:12.079Z,6472.00
2018-07-12T07:58:11.929Z,6032.00
2018-07-12T07:59:11.860Z,6152.00
2018-07-12T08:00:11.792Z,6992.00
2018-07-12T08:01:11.721Z,8064.00
2018-07-12T08:02:11.649Z,8700.00
2018-07-12T08:03:11.579Z,9256.00
2018-07-12T08:04:11.510Z,8884.00
2018-07-12T08:05:11.440Z,8520.00
2018-07-12T08:06:11.369Z,7944.00
2018-07-12T08:07:11.299Z,7736.00
2018-07-12T08:08:11.229Z,8244.00
2018-07-12T08:09:11.160Z,8792.00
2018-07-12T08:10:11.094Z,8512.00
2018-07-12T08:11:11.020Z,7668.00
2018-07-12T08:12:10.950Z,7328.00
2018-07-12T08:13:10.881Z,7508.00
2018-07-12T08:14:10.810Z,7292.00
2018-07-12T08:15:10.743Z,6380.00
2018-07-12T08:16:10.697Z,4972.00
2018-07-12T08:17:10.603Z,4000.00
2018-07-12T08:18:10.533Z,3516.00
2018-07-12T08:19:10.462Z,3188.00
2018-07-12T08:20:10.393Z,2932.00
2018-07-12T08:21:10.324Z,2724.00
2018-07-12T08:22:10.254Z,2704.00
2018-07-12T08:23:10.184Z,2716.00
2018-07-12T08:24:10.113Z,2732.00
2018-07-12T08:25:10.046Z,3056.00
2018-07-12T08:26:09.976Z,3680.00
2018-07-12T08:27:09.912Z,4404.00
2018-07-12T08:28:09.838Z,5000.00
2018-07-12T08:29:09.765Z,5580.00
2018-07-12T08:30:09.700Z,6088.00
2018-07-12T08:31:09.642Z,6488.00
2018-07-12T08:32:09.564Z,6936.00
2018-07-12T08:33:09.486Z,7632.00
2018-07-12T08:34:09.415Z,8064.00
2018-07-12T08:35:09.346Z,8236.00
2018-07-12T08:36:09.280Z,8284.00
2018-07-12T08:37:09.207Z,7460.00
2018-07-12T08:38:09.136Z,6536.00
2018-07-12T08:39:09.066Z,6160.00
2018-07-12T08:40:08.997Z,6136.00
2018-07-12T08:41:08.929Z,6368.00
2018-07-12T08:42:08.856Z,6824.00
2018-07-12T08:43:08.786Z,7360.00
2018-07-12T08:44:08.718Z,8244.00
2018-07-12T08:45:08.695Z,8852.00
2018-07-12T08:46:08.599Z,9248.00
2018-07-12T08:47:08.507Z,9448.00
2018-07-12T08:48:08.456Z,9008.00
2018-07-12T08:49:08.367Z,8396.00
2018-07-12T08:50:08.297Z,7896.00
2018-07-12T08:51:08.227Z,7580.00
2018-07-12T08:52:08.163Z,7748.00
2018-07-12T08:53:08.096Z,8328.00
2018-07-12T08:54:08.021Z,8664.00
2018-07-12T08:55:07.950Z,8752.00
2018-07-12T08:56:07.880Z,8588.00
2018-07-12T08:57:07.811Z,8584.00
2018-07-12T08:58:07.740Z,8300.00
2018-07-12T08:59:07.671Z,8384.00
2018-07-12T09:00:07.601Z,7604.00
2018-07-12T09:01:07.532Z,7328.00
2018-07-12T09:02:07.462Z,6840.00
2018-07-12T09:03:07.542Z,5976.00
2018-07-12T09:04:07.324Z,5676.00
2018-07-12T09:05:07.254Z,5620.00
2018-07-12T09:06:07.184Z,5380.00
2018-07-12T09:07:07.114Z,5044.00
2018-07-12T09:08:07.047Z,4392.00
2018-07-12T09:09:06.977Z,3712.00
2018-07-12T09:10:06.906Z,3832.00
2018-07-12T09:11:06.837Z,3680.00
2018-07-12T09:12:06.768Z,3656.00
2018-07-12T09:13:06.698Z,3912.00
2018-07-12T09:14:06.630Z,4376.00
2018-07-12T09:15:06.561Z,5368.00
2018-07-12T09:16:06.490Z,7072.00
2018-07-12T09:17:06.421Z,8392.00
2018-07-12T09:18:06.350Z,9136.00
2018-07-12T09:19:06.281Z,8832.00
2018-07-12T09:20:06.213Z,8756.00
2018-07-12T09:21:06.143Z,7880.00
2018-07-12T09:22:06.073Z,6916.00
2018-07-12T09:23:06.004Z,6092.00
2018-07-12T09:24:05.934Z,5680.00
2018-07-12T09:25:05.865Z,5880.00
2018-07-12T09:26:05.795Z,6416.00
2018-07-12T09:27:05.725Z,7076.00
2018-07-12T09:28:05.659Z,7436.00
2018-07-12T09:29:05.597Z,7656.00
2018-07-12T09:30:05.519Z,7824.00
2018-07-12T09:31:05.453Z,7620.00
2018-07-12T09:32:05.380Z,6604.00
2018-07-12T09:33:05.311Z,5664.00
2018-07-12T09:34:05.244Z,5148.00
2018-07-12T09:35:05.173Z,5388.00
2018-07-12T09:36:05.105Z,5800.00
2018-07-12T09:37:05.117Z,5900.00
2018-07-12T09:38:04.965Z,5964.00
2018-07-12T09:39:04.895Z,6380.00
2018-07-12T09:40:04.827Z,6576.00
2018-07-12T09:41:04.757Z,6620.00
2018-07-12T09:42:04.688Z,6620.00
2018-07-12T09:43:04.696Z,6468.00
2018-07-12T09:44:04.549Z,7300.00
2018-07-12T09:45:04.483Z,10124.00
2018-07-12T09:46:04.411Z,10912.00
2018-07-12T09:47:04.342Z,11020.00
2018-07-12T09:48:04.274Z,11656.00
2018-07-12T09:49:04.231Z,11652.00
2018-07-12T09:50:04.136Z,11192.00
2018-07-12T09:51:04.067Z,10188.00
2018-07-12T09:52:03.998Z,9232.00
2018-07-12T09:53:03.931Z,9016.00
2018-07-12T09:54:03.861Z,9364.00
2018-07-12T09:55:03.792Z,9868.00
2018-07-12T09:56:03.765Z,10656.00
2018-07-12T09:57:03.657Z,11076.00
2018-07-12T09:58:03.590Z,11144.00
2018-07-12T09:59:03.519Z,10696.00
2018-07-12T10:00:03.451Z,10148.00
2018-07-12T10:01:03.383Z,10148.00
2018-07-12T10:02:03.313Z,9836.00
2018-07-12T10:03:03.247Z,9536.00
2018-07-12T10:04:03.177Z,10072.00
2018-07-12T10:05:03.111Z,9976.00
2018-07-12T10:06:03.040Z,10292.00
2018-07-12T10:07:02.976Z,9988.00
2018-07-12T10:08:02.907Z,10356.00
2018-07-12T10:09:02.838Z,10812.00
2018-07-12T10:10:02.768Z,11436.00
2018-07-12T10:11:02.703Z,11600.00
2018-07-12T10:12:02.633Z,11720.00
2018-07-12T10:13:02.570Z,11840.00
2018-07-12T10:14:02.505Z,11820.00
2018-07-12T10:15:02.428Z,11240.00
2018-07-12T10:16:02.360Z,10212.00
2018-07-12T10:17:02.294Z,10008.00
2018-07-12T10:18:02.223Z,11212.00
2018-07-12T10:19:02.157Z,12400.00
2018-07-12T10:20:02.201Z,13068.00
2018-07-12T10:21:02.022Z,13024.00
2018-07-12T10:22:01.953Z,12608.00
2018-07-12T10:23:01.884Z,11904.00
2018-07-12T10:24:01.816Z,10644.00
2018-07-12T10:25:01.749Z,9332.00
2018-07-12T10:26:01.680Z,8840.00
2018-07-12T10:27:01.618Z,8500.00
2018-07-12T10:28:01.549Z,8116.00
2018-07-12T10:29:01.478Z,8040.00
2018-07-12T10:30:01.409Z,8444.00
2018-07-12T10:31:01.341Z,8948.00
2018-07-12T10:32:01.274Z,9432.00
2018-07-12T10:33:01.205Z,9860.00
2018-07-12T10:34:01.136Z,9948.00
2018-07-12T10:35:01.069Z,9900.00
2018-07-12T10:36:01.000Z,9752.00
2018-07-12T10:37:00.935Z,10568.00
2018-07-12T10:38:00.865Z,12460.00
2018-07-12T10:39:00.796Z,13788.00
2018-07-12T10:40:00.731Z,14432.00
2018-07-12T10:41:00.663Z,13900.00
2018-07-12T10:42:00.593Z,12704.00
2018-07-12T10:43:00.534Z,13488.00
2018-07-12T10:44:00.460Z,14636.00
2018-07-12T10:45:00.389Z,15076.00
2018-07-12T10:46:00.321Z,13508.00
2018-07-12T10:47:00.253Z,11632.00
2018-07-12T10:48:00.187Z,9636.00
2018-07-12T10:49:00.119Z,8916.00
2018-07-12T10:50:00.062Z,9020.00
2018-07-12T10:50:59.987Z,9888.00
2018-07-12T10:51:59.917Z,11028.00
2018-07-12T10:52:59.848Z,11184.00
2018-07-12T10:53:59.780Z,10956.00
2018-07-12T10:54:59.713Z,11840.00
2018-07-12T10:55:59.646Z,11992.00
2018-07-12T10:56:59.578Z,11628.00
2018-07-12T10:57:59.510Z,10804.00
2018-07-12T10:58:59.494Z,9792.00
2018-07-12T10:59:59.378Z,8952.00
2018-07-12T11:00:59.309Z,8776.00
2018-07-12T11:01:59.240Z,9908.00
2018-07-12T11:02:59.175Z,11224.00
2018-07-12T11:03:59.105Z,12548.00
2018-07-12T11:04:59.041Z,12652.00
2018-07-12T11:05:58.970Z,13060.00
2018-07-12T11:06:58.902Z,13960.00
2018-07-12T11:07:58.836Z,15588.00
2018-07-12T11:08:58.768Z,17184.00
2018-07-12T11:09:58.700Z,18048.00
2018-07-12T11:10:58.633Z,18016.00
2018-07-12T11:11:58.566Z,17280.00
2018-07-12T11:12:58.497Z,17120.00
2018-07-12T11:13:58.429Z,17184.00
2018-07-12T11:14:58.362Z,15248.00
2018-07-12T11:15:58.296Z,13664.00
2018-07-12T11:16:58.228Z,12488.00
2018-07-12T11:17:58.160Z,11696.00
2018-07-12T11:18:58.096Z,11708.00
2018-07-12T11:19:58.032Z,12388.00
2018-07-12T11:20:57.960Z,12928.00
2018-07-12T11:21:57.892Z,11360.00
2018-07-12T11:22:57.826Z,10840.00
2018-07-12T11:23:57.762Z,10296.00
2018-07-12T11:24:57.693Z,9540.00
2018-07-12T11:25:57.626Z,9088.00
2018-07-12T11:26:57.558Z,9552.00
2018-07-12T11:27:57.492Z,11256.00
2018-07-12T11:28:57.424Z,12944.00
2018-07-12T11:29:57.356Z,15256.00
2018-07-12T11:30:57.290Z,17120.00
2018-07-12T11:31:57.224Z,12028.00
2018-07-12T11:32:57.158Z,10716.00
2018-07-12T11:33:57.089Z,9880.00
2018-07-12T11:34:57.020Z,9132.00
2018-07-12T11:35:56.955Z,8600.00
2018-07-12T11:36:56.891Z,8172.00
2018-07-12T11:37:56.821Z,7992.00
2018-07-12T11:38:56.753Z,8036.00
2018-07-12T11:39:56.686Z,8148.00
2018-07-12T11:40:56.618Z,8728.00
2018-07-12T11:41:56.551Z,9188.00
2018-07-12T11:42:56.484Z,10000.00
2018-07-12T11:43:56.417Z,11668.00
2018-07-12T11:44:56.356Z,23264.00
2018-07-12T11:45:56.288Z,26816.00
2018-07-12T11:46:56.216Z,35936.00
2018-07-12T11:47:56.149Z,13996.00
2018-07-12T11:48:56.081Z,12952.00
2018-07-12T11:49:56.014Z,15164.00
2018-07-12T11:50:56.015Z,22016.00
2018-07-12T11:51:55.880Z,23520.00
2018-07-12T11:52:55.889Z,107392.00
2018-07-12T11:53:55.747Z,102176.00
2018-07-12T11:54:55.682Z,101056.00
2018-07-12T11:55:55.616Z,102528.00
2018-07-12T11:56:55.551Z,103552.00
2018-07-12T11:57:55.487Z,109376.00
2018-07-12T11:58:55.421Z,44416.00
2018-07-12T11:59:55.361Z,71328.00
2018-07-12T12:00:55.302Z,39872.00
2018-07-12T12:01:55.470Z,53856.00
2018-07-12T12:02:55.167Z,32608.00
2018-07-12T12:03:55.104Z,33472.00
2018-07-12T12:04:55.042Z,20896.00
2018-07-12T12:05:54.978Z,22240.00
2018-07-12T12:06:54.921Z,100352.00
2018-07-12T12:07:54.854Z,38016.00
2018-07-12T12:08:54.791Z,83488.00
2018-07-12T12:09:54.728Z,84928.00
2018-07-12T12:10:54.662Z,77824.00
2018-07-12T12:11:54.602Z,109664.00
2018-07-12T12:12:54.587Z,70592.00
2018-07-12T12:13:54.475Z,32640.00
2018-07-12T12:14:54.414Z,31968.00
2018-07-12T12:15:54.352Z,28448.00
2018-07-12T12:16:54.292Z,20704.00
2018-07-12T12:17:54.228Z,102944.00
2018-07-12T12:18:54.166Z,71072.00
2018-07-12T12:19:54.105Z,20544.00
2018-07-12T12:20:54.042Z,79840.00
2018-07-12T12:21:53.978Z,118016.00